sensor_id;sensor_type;location;lat;lon;timestamp;pressure;altitude;pressure_sealevel;temperature;humidity
63088;BME280;49173;43.164;27.786;2023-03-14T00:01:18;101020.22;;;4.09;69.14
63088;BME280;49173;43.164;27.786;2023-03-14T00:03:45;101012.25;;;4.09;68.86
63088;BME280;49173;43.164;27.786;2023-03-14T00:06:11;101014.00;;;4.08;68.76
63088;BME280;49173;43.164;27.786;2023-03-14T00:08:37;101012.19;;;4.12;68.38
63088;BME280;49173;43.164;27.786;2023-03-14T00:11:24;101004.13;;;4.15;68.33
63088;BME280;49173;43.164;27.786;2023-03-14T00:13:52;101007.66;;;4.16;67.88
63088;BME280;49173;43.164;27.786;2023-03-14T00:16:18;101002.41;;;4.14;67.91
63088;BME280;49173;43.164;27.786;2023-03-14T00:18:43;101001.63;;;4.09;67.58
63088;BME280;49173;43.164;27.786;2023-03-14T00:21:09;100992.78;;;4.07;67.96
63088;BME280;49173;43.164;27.786;2023-03-14T00:23:36;100998.09;;;4.07;67.58
63088;BME280;49173;43.164;27.786;2023-03-14T00:26:03;100996.34;;;4.06;67.52
63088;BME280;49173;43.164;27.786;2023-03-14T00:28:29;100987.53;;;4.04;67.62
63088;BME280;49173;43.164;27.786;2023-03-14T00:30:54;100979.66;;;3.99;67.84
63088;BME280;49173;43.164;27.786;2023-03-14T00:33:21;100976.16;;;3.97;67.67
63088;BME280;49173;43.164;27.786;2023-03-14T00:35:56;100977.06;;;3.96;67.80
63088;BME280;49173;43.164;27.786;2023-03-14T00:38:22;100961.16;;;3.95;67.94
63088;BME280;49173;43.164;27.786;2023-03-14T00:40:49;100957.59;;;3.94;67.60
63088;BME280;49173;43.164;27.786;2023-03-14T00:43:15;100939.06;;;3.93;67.71
63088;BME280;49173;43.164;27.786;2023-03-14T00:45:41;100942.56;;;3.95;67.63
63088;BME280;49173;43.164;27.786;2023-03-14T00:48:06;100938.13;;;3.95;67.94
63088;BME280;49173;43.164;27.786;2023-03-14T00:50:32;100930.16;;;3.94;67.92
63088;BME280;49173;43.164;27.786;2023-03-14T00:52:58;100930.16;;;3.95;67.73
63088;BME280;49173;43.164;27.786;2023-03-14T00:55:24;100930.09;;;3.98;67.70
63088;BME280;49173;43.164;27.786;2023-03-14T00:57:50;100923.88;;;3.99;67.50
63088;BME280;49173;43.164;27.786;2023-03-14T01:00:16;100916.94;;;3.92;67.65
63088;BME280;49173;43.164;27.786;2023-03-14T01:02:41;100920.56;;;3.86;67.59
63088;BME280;49173;43.164;27.786;2023-03-14T01:05:07;100910.06;;;3.82;67.98
63088;BME280;49173;43.164;27.786;2023-03-14T01:07:35;100914.53;;;3.78;67.62
63088;BME280;49173;43.164;27.786;2023-03-14T01:10:01;100914.72;;;3.69;67.92
63088;BME280;49173;43.164;27.786;2023-03-14T01:12:27;100920.16;;;3.62;68.02
63088;BME280;49173;43.164;27.786;2023-03-14T01:14:53;100922.00;;;3.56;67.96
63088;BME280;49173;43.164;27.786;2023-03-14T01:17:18;100925.72;;;3.46;68.02
63088;BME280;49173;43.164;27.786;2023-03-14T01:19:44;100928.41;;;3.43;68.06
63088;BME280;49173;43.164;27.786;2023-03-14T01:22:09;100927.63;;;3.40;67.99
63088;BME280;49173;43.164;27.786;2023-03-14T01:24:36;100925.00;;;3.37;68.29
63088;BME280;49173;43.164;27.786;2023-03-14T01:27:02;100925.97;;;3.33;68.50
63088;BME280;49173;43.164;27.786;2023-03-14T01:29:27;100925.16;;;3.27;68.84
63088;BME280;49173;43.164;27.786;2023-03-14T01:31:53;100911.97;;;3.21;68.46
63088;BME280;49173;43.164;27.786;2023-03-14T01:34:19;100920.03;;;3.15;68.21
63088;BME280;49173;43.164;27.786;2023-03-14T01:36:44;100911.34;;;3.06;68.07
63088;BME280;49173;43.164;27.786;2023-03-14T01:39:10;100923.81;;;2.99;68.55
63088;BME280;49173;43.164;27.786;2023-03-14T01:41:36;100927.47;;;2.92;68.59
63088;BME280;49173;43.164;27.786;2023-03-14T01:44:01;100931.97;;;2.85;68.86
63088;BME280;49173;43.164;27.786;2023-03-14T01:49:01;100937.50;;;2.70;69.08
63088;BME280;49173;43.164;27.786;2023-03-14T01:51:32;100933.22;;;2.61;70.09
63088;BME280;49173;43.164;27.786;2023-03-14T01:54:02;100938.59;;;2.52;70.42
63088;BME280;49173;43.164;27.786;2023-03-14T01:56:30;100940.50;;;2.42;71.27
63088;BME280;49173;43.164;27.786;2023-03-14T01:58:55;100937.84;;;2.44;71.49
63088;BME280;49173;43.164;27.786;2023-03-14T02:01:21;100937.00;;;2.40;72.01
63088;BME280;49173;43.164;27.786;2023-03-14T02:03:56;100931.69;;;2.42;72.33
63088;BME280;49173;43.164;27.786;2023-03-14T02:06:26;100936.09;;;2.43;72.41
63088;BME280;49173;43.164;27.786;2023-03-14T02:08:54;100929.91;;;2.42;72.43
63088;BME280;49173;43.164;27.786;2023-03-14T02:11:20;100927.22;;;2.45;72.61
63088;BME280;49173;43.164;27.786;2023-03-14T02:13:46;100932.59;;;2.41;72.45
63088;BME280;49173;43.164;27.786;2023-03-14T02:16:12;100925.44;;;2.46;72.54
63088;BME280;49173;43.164;27.786;2023-03-14T02:18:37;100930.72;;;2.49;72.91
63088;BME280;49173;43.164;27.786;2023-03-14T02:26:01;100934.06;;;2.60;72.90
63088;BME280;49173;43.164;27.786;2023-03-14T02:28:28;100939.31;;;2.66;72.49
63088;BME280;49173;43.164;27.786;2023-03-14T02:30:54;100946.47;;;2.61;72.42
63088;BME280;49173;43.164;27.786;2023-03-14T02:33:20;100943.84;;;2.57;72.43
63088;BME280;49173;43.164;27.786;2023-03-14T02:35:47;100943.00;;;2.55;71.47
63088;BME280;49173;43.164;27.786;2023-03-14T02:40:51;100952.72;;;2.53;72.83
63088;BME280;49173;43.164;27.786;2023-03-14T02:43:17;100957.06;;;2.60;72.93
63088;BME280;49173;43.164;27.786;2023-03-14T02:45:47;100951.75;;;2.61;71.93
63088;BME280;49173;43.164;27.786;2023-03-14T02:50:41;100952.66;;;2.59;73.04
63088;BME280;49173;43.164;27.786;2023-03-14T02:53:07;100953.47;;;2.64;72.89
63088;BME280;49173;43.164;27.786;2023-03-14T02:55:32;100956.06;;;2.67;73.20
63088;BME280;49173;43.164;27.786;2023-03-14T02:57:58;100956.06;;;2.67;72.60
63088;BME280;49173;43.164;27.786;2023-03-14T03:00:24;100949.03;;;2.66;72.55
63088;BME280;49173;43.164;27.786;2023-03-14T03:02:49;100950.88;;;2.61;72.76
63088;BME280;49173;43.164;27.786;2023-03-14T03:05:15;100953.50;;;2.62;73.05
63088;BME280;49173;43.164;27.786;2023-03-14T03:07:40;100948.22;;;2.62;72.81
63088;BME280;49173;43.164;27.786;2023-03-14T03:10:06;100940.28;;;2.61;73.08
63088;BME280;49173;43.164;27.786;2023-03-14T03:12:32;100939.50;;;2.51;73.47
63088;BME280;49173;43.164;27.786;2023-03-14T03:14:58;100942.22;;;2.48;73.40
63088;BME280;49173;43.164;27.786;2023-03-14T03:17:24;100946.53;;;2.54;73.75
63088;BME280;49173;43.164;27.786;2023-03-14T03:19:49;100945.66;;;2.55;73.26
63088;BME280;49173;43.164;27.786;2023-03-14T03:22:15;100940.34;;;2.55;73.99
63088;BME280;49173;43.164;27.786;2023-03-14T03:24:40;100937.66;;;2.58;73.98
63088;BME280;49173;43.164;27.786;2023-03-14T03:27:06;100940.28;;;2.61;73.89
63088;BME280;49173;43.164;27.786;2023-03-14T03:29:31;100943.84;;;2.57;74.44
63088;BME280;49173;43.164;27.786;2023-03-14T03:31:57;100932.31;;;2.59;74.76
63088;BME280;49173;43.164;27.786;2023-03-14T03:34:23;100924.41;;;2.58;74.13
63088;BME280;49173;43.164;27.786;2023-03-14T03:36:48;100920.03;;;2.55;74.35
63088;BME280;49173;43.164;27.786;2023-03-14T03:39:14;100912.09;;;2.54;74.20
63088;BME280;49173;43.164;27.786;2023-03-14T03:41:39;100905.13;;;2.46;74.40
63088;BME280;49173;43.164;27.786;2023-03-14T03:44:05;100904.25;;;2.46;74.59
63088;BME280;49173;43.164;27.786;2023-03-14T03:46:31;100903.38;;;2.45;74.63
63088;BME280;49173;43.164;27.786;2023-03-14T03:48:58;100904.16;;;2.52;74.30
63088;BME280;49173;43.164;27.786;2023-03-14T03:51:24;100922.59;;;2.60;74.13
63088;BME280;49173;43.164;27.786;2023-03-14T03:53:49;100915.53;;;2.62;74.20
63088;BME280;49173;43.164;27.786;2023-03-14T03:56:15;100910.25;;;2.59;73.78
63088;BME280;49173;43.164;27.786;2023-03-14T03:58:41;100912.13;;;2.51;74.20
63088;BME280;49173;43.164;27.786;2023-03-14T04:01:07;100904.25;;;2.47;73.88
63088;BME280;49173;43.164;27.786;2023-03-14T04:03:33;100904.22;;;2.49;73.93
63088;BME280;49173;43.164;27.786;2023-03-14T04:05:59;100913.00;;;2.54;73.53
63088;BME280;49173;43.164;27.786;2023-03-14T04:08:25;100901.50;;;2.54;73.71
63088;BME280;49173;43.164;27.786;2023-03-14T04:10:53;100908.56;;;2.55;74.31
63088;BME280;49173;43.164;27.786;2023-03-14T04:13:19;100912.13;;;2.51;74.36
63088;BME280;49173;43.164;27.786;2023-03-14T04:15:44;100920.94;;;2.53;74.28
63088;BME280;49173;43.164;27.786;2023-03-14T04:18:10;100917.38;;;2.55;73.85
63088;BME280;49173;43.164;27.786;2023-03-14T04:20:35;100908.56;;;2.55;74.05
63088;BME280;49173;43.164;27.786;2023-03-14T04:23:01;100910.38;;;2.51;73.47
63088;BME280;49173;43.164;27.786;2023-03-14T04:25:27;100906.00;;;2.45;72.80
63088;BME280;49173;43.164;27.786;2023-03-14T04:27:52;100900.75;;;2.44;73.71
63088;BME280;49173;43.164;27.786;2023-03-14T04:30:18;100903.41;;;2.44;73.83
63088;BME280;49173;43.164;27.786;2023-03-14T04:32:43;100909.53;;;2.47;73.63
63088;BME280;49173;43.164;27.786;2023-03-14T04:35:09;100909.53;;;2.49;73.93
63088;BME280;49173;43.164;27.786;2023-03-14T04:37:34;100904.19;;;2.51;73.84
63088;BME280;49173;43.164;27.786;2023-03-14T04:40:00;100914.78;;;2.51;74.32
63088;BME280;49173;43.164;27.786;2023-03-14T04:42:25;100906.03;;;2.47;74.14
63088;BME280;49173;43.164;27.786;2023-03-14T04:44:51;100917.47;;;2.46;74.18
63088;BME280;49173;43.164;27.786;2023-03-14T04:47:16;100905.16;;;2.43;73.98
63088;BME280;49173;43.164;27.786;2023-03-14T04:49:43;100904.34;;;2.40;73.52
63088;BME280;49173;43.164;27.786;2023-03-14T04:52:09;100903.56;;;2.33;72.71
63088;BME280;49173;43.164;27.786;2023-03-14T04:54:35;100894.69;;;2.34;72.74
63088;BME280;49173;43.164;27.786;2023-03-14T04:57:00;100908.78;;;2.36;72.69
63088;BME280;49173;43.164;27.786;2023-03-14T04:59:26;100899.88;;;2.43;73.05
63088;BME280;49173;43.164;27.786;2023-03-14T05:01:51;100898.88;;;2.52;72.71
63088;BME280;49173;43.164;27.786;2023-03-14T05:04:17;100902.22;;;2.65;72.56
63088;BME280;49173;43.164;27.786;2023-03-14T05:06:42;100897.56;;;2.81;72.83
63088;BME280;49173;43.164;27.786;2023-03-14T05:09:08;100898.19;;;2.99;72.80
63088;BME280;49173;43.164;27.786;2023-03-14T05:11:33;100905.75;;;3.25;71.96
63088;BME280;49173;43.164;27.786;2023-03-14T05:13:59;100902.66;;;3.50;71.63
63088;BME280;49173;43.164;27.786;2023-03-14T05:16:24;100903.00;;;3.81;70.75
63088;BME280;49173;43.164;27.786;2023-03-14T05:18:50;100899.78;;;4.10;69.15
63088;BME280;49173;43.164;27.786;2023-03-14T05:21:15;100904.19;;;4.53;68.67
63088;BME280;49173;43.164;27.786;2023-03-14T05:23:41;100900.84;;;5.20;68.15
63088;BME280;49173;43.164;27.786;2023-03-14T05:26:07;100913.44;;;6.18;66.12
63088;BME280;49173;43.164;27.786;2023-03-14T05:28:32;100902.47;;;7.15;62.01
63088;BME280;49173;43.164;27.786;2023-03-14T05:30:58;100899.97;;;8.14;59.23
63088;BME280;49173;43.164;27.786;2023-03-14T05:33:23;100893.69;;;9.30;55.83
63088;BME280;49173;43.164;27.786;2023-03-14T05:35:49;100891.16;;;10.50;52.47
63088;BME280;49173;43.164;27.786;2023-03-14T05:38:14;100891.41;;;11.02;49.37
63088;BME280;49173;43.164;27.786;2023-03-14T05:40:40;100894.28;;;11.16;48.80
63088;BME280;49173;43.164;27.786;2023-03-14T05:43:05;100889.84;;;11.68;47.02
63088;BME280;49173;43.164;27.786;2023-03-14T05:45:33;100884.94;;;12.28;46.22
63088;BME280;49173;43.164;27.786;2023-03-14T05:48:00;100877.88;;;12.59;45.88
63088;BME280;49173;43.164;27.786;2023-03-14T05:50:25;100873.97;;;12.96;45.51
63088;BME280;49173;43.164;27.786;2023-03-14T05:52:50;100875.75;;;13.74;43.37
63088;BME280;49173;43.164;27.786;2023-03-14T05:55:16;100878.16;;;14.80;40.99
63088;BME280;49173;43.164;27.786;2023-03-14T05:57:41;100870.06;;;16.01;38.49
63088;BME280;49173;43.164;27.786;2023-03-14T06:00:07;100862.56;;;16.68;37.50
63088;BME280;49173;43.164;27.786;2023-03-14T06:02:33;100858.19;;;16.91;37.60
63088;BME280;49173;43.164;27.786;2023-03-14T06:04:59;100860.38;;;16.99;37.96
63088;BME280;49173;43.164;27.786;2023-03-14T06:07:24;100864.72;;;17.49;37.51
63088;BME280;49173;43.164;27.786;2023-03-14T06:09:50;100865.41;;;18.68;36.00
63088;BME280;49173;43.164;27.786;2023-03-14T06:12:15;100867.66;;;20.14;33.94
63088;BME280;49173;43.164;27.786;2023-03-14T06:14:42;100864.50;;;21.50;31.81
63088;BME280;49173;43.164;27.786;2023-03-14T06:17:08;100864.50;;;22.55;29.75
63088;BME280;49173;43.164;27.786;2023-03-14T06:19:33;100854.88;;;22.98;28.49
63088;BME280;49173;43.164;27.786;2023-03-14T06:21:59;100862.31;;;22.68;28.58
63088;BME280;49173;43.164;27.786;2023-03-14T06:24:24;100856.16;;;22.00;29.11
63088;BME280;49173;43.164;27.786;2023-03-14T06:26:50;100861.81;;;21.20;30.43
63088;BME280;49173;43.164;27.786;2023-03-14T06:29:15;100855.66;;;20.16;31.77
63088;BME280;49173;43.164;27.786;2023-03-14T06:31:41;100849.00;;;19.13;33.20
63088;BME280;49173;43.164;27.786;2023-03-14T06:34:07;100849.97;;;18.11;34.39
63088;BME280;49173;43.164;27.786;2023-03-14T06:36:32;100855.25;;;17.07;36.23
63088;BME280;49173;43.164;27.786;2023-03-14T06:38:58;100854.69;;;16.02;37.89
63088;BME280;49173;43.164;27.786;2023-03-14T06:41:24;100853.72;;;15.23;40.39
63088;BME280;49173;43.164;27.786;2023-03-14T06:43:51;100859.94;;;14.55;42.13
63088;BME280;49173;43.164;27.786;2023-03-14T06:46:17;100863.06;;;14.05;43.52
63088;BME280;49173;43.164;27.786;2023-03-14T06:48:42;100860.59;;;13.72;44.23
63088;BME280;49173;43.164;27.786;2023-03-14T06:51:08;100855.00;;;13.45;45.98
63088;BME280;49173;43.164;27.786;2023-03-14T06:53:33;100846.84;;;13.15;46.92
63088;BME280;49173;43.164;27.786;2023-03-14T06:55:59;100847.03;;;12.80;47.93
63088;BME280;49173;43.164;27.786;2023-03-14T06:58:25;100843.47;;;12.48;48.70
63088;BME280;49173;43.164;27.786;2023-03-14T07:00:52;100842.69;;;12.13;49.61
63088;BME280;49173;43.164;27.786;2023-03-14T07:03:17;100839.81;;;11.83;50.16
63088;BME280;49173;43.164;27.786;2023-03-14T07:05:43;100834.81;;;11.58;51.54
63088;BME280;49173;43.164;27.786;2023-03-14T07:08:08;100841.44;;;11.34;53.01
63088;BME280;49173;43.164;27.786;2023-03-14T07:10:34;100839.00;;;10.93;53.26
63088;BME280;49173;43.164;27.786;2023-03-14T07:12:59;100826.91;;;10.65;53.31
63088;BME280;49173;43.164;27.786;2023-03-14T07:15:25;100837.84;;;10.42;53.13
63088;BME280;49173;43.164;27.786;2023-03-14T07:17:50;100837.78;;;10.25;54.56
63088;BME280;49173;43.164;27.786;2023-03-14T07:20:16;100834.03;;;10.08;55.28
63088;BME280;49173;43.164;27.786;2023-03-14T07:22:42;100832.25;;;10.07;55.63
63088;BME280;49173;43.164;27.786;2023-03-14T07:25:07;100837.97;;;10.00;55.54
63088;BME280;49173;43.164;27.786;2023-03-14T07:27:35;100837.66;;;9.87;55.42
63088;BME280;49173;43.164;27.786;2023-03-14T07:30:00;100831.75;;;9.79;56.53
63088;BME280;49173;43.164;27.786;2023-03-14T07:32:26;100828.47;;;9.72;56.61
63088;BME280;49173;43.164;27.786;2023-03-14T07:34:52;100828.53;;;9.71;56.47
63088;BME280;49173;43.164;27.786;2023-03-14T07:37:17;100838.66;;;9.64;57.93
63088;BME280;49173;43.164;27.786;2023-03-14T07:39:43;100837.72;;;9.65;58.14
63088;BME280;49173;43.164;27.786;2023-03-14T07:42:08;100825.16;;;9.67;56.69
63088;BME280;49173;43.164;27.786;2023-03-14T07:44:34;100822.66;;;9.62;54.96
63088;BME280;49173;43.164;27.786;2023-03-14T07:46:59;100828.28;;;9.56;56.07
63088;BME280;49173;43.164;27.786;2023-03-14T07:49:25;100820.03;;;9.61;56.55
63088;BME280;49173;43.164;27.786;2023-03-14T07:51:51;100819.25;;;9.59;56.18
63088;BME280;49173;43.164;27.786;2023-03-14T07:54:16;100819.09;;;9.62;56.02
63088;BME280;49173;43.164;27.786;2023-03-14T07:56:42;100817.22;;;9.64;55.45
63088;BME280;49173;43.164;27.786;2023-03-14T07:59:07;100813.56;;;9.67;55.93
63088;BME280;49173;43.164;27.786;2023-03-14T08:01:33;100806.31;;;9.69;56.34
63088;BME280;49173;43.164;27.786;2023-03-14T08:03:58;100802.09;;;9.63;54.43
63088;BME280;49173;43.164;27.786;2023-03-14T08:06:24;100804.69;;;9.64;55.82
63088;BME280;49173;43.164;27.786;2023-03-14T08:08:50;100799.06;;;9.71;55.66
63088;BME280;49173;43.164;27.786;2023-03-14T08:11:17;100793.78;;;9.69;53.71
63088;BME280;49173;43.164;27.786;2023-03-14T08:13:43;100792.84;;;9.70;53.91
63088;BME280;49173;43.164;27.786;2023-03-14T08:16:17;100779.31;;;9.73;53.87
63088;BME280;49173;43.164;27.786;2023-03-14T08:18:43;100784.59;;;9.75;54.63
63088;BME280;49173;43.164;27.786;2023-03-14T08:21:09;100780.03;;;9.77;54.37
63088;BME280;49173;43.164;27.786;2023-03-14T08:23:35;100782.59;;;9.80;54.25
63088;BME280;49173;43.164;27.786;2023-03-14T08:26:01;100770.84;;;9.82;54.37
63088;BME280;49173;43.164;27.786;2023-03-14T08:28:27;100776.91;;;9.86;54.83
63088;BME280;49173;43.164;27.786;2023-03-14T08:30:59;100775.84;;;9.90;54.63
63088;BME280;49173;43.164;27.786;2023-03-14T08:33:26;100773.09;;;9.91;55.15
63088;BME280;49173;43.164;27.786;2023-03-14T08:35:55;100762.19;;;9.96;54.24
63088;BME280;49173;43.164;27.786;2023-03-14T08:38:22;100767.34;;;10.01;53.95
63088;BME280;49173;43.164;27.786;2023-03-14T08:40:47;100762.69;;;10.04;52.80
63088;BME280;49173;43.164;27.786;2023-03-14T08:43:13;100758.09;;;10.06;50.65
63088;BME280;49173;43.164;27.786;2023-03-14T08:45:38;100742.75;;;10.10;49.01
63088;BME280;49173;43.164;27.786;2023-03-14T08:48:05;100734.63;;;10.11;49.66
63088;BME280;49173;43.164;27.786;2023-03-14T08:50:31;100728.41;;;10.11;50.89
63088;BME280;49173;43.164;27.786;2023-03-14T08:52:57;100728.13;;;10.17;49.77
63088;BME280;49173;43.164;27.786;2023-03-14T08:55:25;100720.84;;;10.19;47.09
63088;BME280;49173;43.164;27.786;2023-03-14T08:57:52;100719.22;;;10.16;48.14
63088;BME280;49173;43.164;27.786;2023-03-14T09:00:18;100721.03;;;10.16;48.25
63088;BME280;49173;43.164;27.786;2023-03-14T09:02:44;100723.63;;;10.17;47.80
63088;BME280;49173;43.164;27.786;2023-03-14T09:05:10;100720.00;;;10.18;44.40
63088;BME280;49173;43.164;27.786;2023-03-14T09:07:36;100715.66;;;10.16;45.88
63088;BME280;49173;43.164;27.786;2023-03-14T09:10:01;100714.47;;;10.22;45.31
63088;BME280;49173;43.164;27.786;2023-03-14T09:12:28;100713.50;;;10.24;45.20
63088;BME280;49173;43.164;27.786;2023-03-14T09:14:54;100702.47;;;10.30;44.08
63088;BME280;49173;43.164;27.786;2023-03-14T09:17:19;100712.75;;;10.39;44.54
63088;BME280;49173;43.164;27.786;2023-03-14T09:19:45;100704.25;;;10.49;41.93
63088;BME280;49173;43.164;27.786;2023-03-14T09:22:11;100701.72;;;10.45;40.33
63088;BME280;49173;43.164;27.786;2023-03-14T09:24:36;100701.28;;;10.36;39.05
63088;BME280;49173;43.164;27.786;2023-03-14T09:27:02;100697.81;;;10.34;40.83
63088;BME280;49173;43.164;27.786;2023-03-14T09:29:27;100698.00;;;10.31;38.85
63088;BME280;49173;43.164;27.786;2023-03-14T09:31:53;100698.84;;;10.31;39.05
63088;BME280;49173;43.164;27.786;2023-03-14T09:34:19;100693.19;;;10.37;39.34
63088;BME280;49173;43.164;27.786;2023-03-14T09:36:44;100684.41;;;10.34;38.25
63088;BME280;49173;43.164;27.786;2023-03-14T09:39:10;100687.81;;;10.37;40.65
63088;BME280;49173;43.164;27.786;2023-03-14T09:41:40;100686.59;;;10.44;40.18
63088;BME280;49173;43.164;27.786;2023-03-14T09:44:08;100693.31;;;10.53;40.20
63088;BME280;49173;43.164;27.786;2023-03-14T09:46:37;100690.41;;;10.58;40.42
63088;BME280;49173;43.164;27.786;2023-03-14T09:49:07;100678.78;;;10.57;36.75
63088;BME280;49173;43.164;27.786;2023-03-14T09:51:35;100676.16;;;10.56;35.54
63088;BME280;49173;43.164;27.786;2023-03-14T09:54:01;100670.75;;;10.57;37.31
63088;BME280;49173;43.164;27.786;2023-03-14T09:56:27;100673.56;;;10.54;35.81
63088;BME280;49173;43.164;27.786;2023-03-14T09:58:57;100664.47;;;10.57;37.81
63088;BME280;49173;43.164;27.786;2023-03-14T10:01:29;100656.44;;;10.57;35.12
63088;BME280;49173;43.164;27.786;2023-03-14T10:03:57;100659.94;;;10.59;38.25
63088;BME280;49173;43.164;27.786;2023-03-14T10:06:27;100651.78;;;10.60;38.81
63088;BME280;49173;43.164;27.786;2023-03-14T10:08:53;100659.63;;;10.65;37.28
63088;BME280;49173;43.164;27.786;2023-03-14T10:11:20;100654.81;;;10.71;37.77
63088;BME280;49173;43.164;27.786;2023-03-14T10:16:30;100648.31;;;10.76;33.21
63088;BME280;49173;43.164;27.786;2023-03-14T10:19:03;100640.44;;;10.72;34.10
63088;BME280;49173;43.164;27.786;2023-03-14T10:21:31;100642.16;;;10.73;36.36
63088;BME280;49173;43.164;27.786;2023-03-14T10:24:10;100642.00;;;10.77;36.21
63088;BME280;49173;43.164;27.786;2023-03-14T10:26:42;100624.06;;;10.77;36.81
63088;BME280;49173;43.164;27.786;2023-03-14T10:29:10;100633.00;;;10.78;37.23
63088;BME280;49173;43.164;27.786;2023-03-14T10:31:58;100624.03;;;10.79;36.27
63088;BME280;49173;43.164;27.786;2023-03-14T10:34:25;100620.53;;;10.77;34.93
63088;BME280;49173;43.164;27.786;2023-03-14T10:36:54;100620.38;;;10.80;35.92
63088;BME280;49173;43.164;27.786;2023-03-14T10:39:27;100615.69;;;10.83;36.08
63088;BME280;49173;43.164;27.786;2023-03-14T10:41:55;100594.41;;;10.80;36.18
63088;BME280;49173;43.164;27.786;2023-03-14T10:44:28;100594.22;;;10.83;34.99
63088;BME280;49173;43.164;27.786;2023-03-14T10:47:00;100590.28;;;10.90;33.97
63088;BME280;49173;43.164;27.786;2023-03-14T10:49:30;100590.72;;;10.98;35.91
63088;BME280;49173;43.164;27.786;2023-03-14T10:52:01;100581.47;;;11.04;36.47
63088;BME280;49173;43.164;27.786;2023-03-14T10:54:30;100576.09;;;11.04;33.90
63088;BME280;49173;43.164;27.786;2023-03-14T10:56:57;100558.03;;;11.08;35.44
63088;BME280;49173;43.164;27.786;2023-03-14T10:59:38;100567.72;;;11.10;36.81
63088;BME280;49173;43.164;27.786;2023-03-14T11:05:01;100548.50;;;11.18;34.49
63088;BME280;49173;43.164;27.786;2023-03-14T11:15:31;100515.16;;;11.22;33.59
63088;BME280;49173;43.164;27.786;2023-03-14T11:18:18;100511.97;;;11.31;35.08
63088;BME280;49173;43.164;27.786;2023-03-14T11:25:54;100498.53;;;11.47;33.36
63088;BME280;49173;43.164;27.786;2023-03-14T11:28:26;100490.31;;;11.50;32.50
63088;BME280;49173;43.164;27.786;2023-03-14T11:31:03;100489.34;;;11.51;32.08
63088;BME280;49173;43.164;27.786;2023-03-14T11:36:32;100468.16;;;11.61;30.50
63088;BME280;49173;43.164;27.786;2023-03-14T11:39:02;100468.00;;;11.64;31.94
63088;BME280;49173;43.164;27.786;2023-03-14T11:43:57;100455.84;;;11.72;33.75
63088;BME280;49173;43.164;27.786;2023-03-14T11:47:11;100464.53;;;11.77;33.04
63088;BME280;49173;43.164;27.786;2023-03-14T11:51:40;100441.34;;;11.91;34.76
63088;BME280;49173;43.164;27.786;2023-03-14T11:59:45;100434.09;;;12.07;32.61
63088;BME280;49173;43.164;27.786;2023-03-14T12:05:20;100418.09;;;12.20;32.39
63088;BME280;49173;43.164;27.786;2023-03-14T12:10:01;100407.59;;;12.15;31.89
63088;BME280;49173;43.164;27.786;2023-03-14T12:12:30;100405.31;;;12.23;33.07
63088;BME280;49173;43.164;27.786;2023-03-14T12:14:58;100388.88;;;12.28;31.35
63088;BME280;49173;43.164;27.786;2023-03-14T12:17:38;100390.22;;;12.21;33.32
63088;BME280;49173;43.164;27.786;2023-03-14T12:22:50;100384.75;;;12.22;34.01
63088;BME280;49173;43.164;27.786;2023-03-14T12:25:18;100372.91;;;12.25;34.46
63088;BME280;49173;43.164;27.786;2023-03-14T12:27:47;100381.84;;;12.25;35.96
63088;BME280;49173;43.164;27.786;2023-03-14T12:35:41;100358.78;;;12.21;35.87
63088;BME280;49173;43.164;27.786;2023-03-14T12:38:32;100351.59;;;12.22;35.83
63088;BME280;49173;43.164;27.786;2023-03-14T12:43:32;100353.81;;;12.29;35.88
63088;BME280;49173;43.164;27.786;2023-03-14T12:46:18;100341.41;;;12.27;34.95
63088;BME280;49173;43.164;27.786;2023-03-14T12:48:50;100336.97;;;12.26;35.17
63088;BME280;49173;43.164;27.786;2023-03-14T12:51:26;100343.69;;;12.19;36.11
63088;BME280;49173;43.164;27.786;2023-03-14T13:01:55;100331.09;;;12.05;37.27
63088;BME280;49173;43.164;27.786;2023-03-14T13:04:59;100322.94;;;11.92;39.11
63088;BME280;49173;43.164;27.786;2023-03-14T13:09:57;100308.19;;;11.83;39.65
63088;BME280;49173;43.164;27.786;2023-03-14T13:12:34;100311.22;;;11.63;40.86
63088;BME280;49173;43.164;27.786;2023-03-14T13:15:13;100313.47;;;11.55;42.26
63088;BME280;49173;43.164;27.786;2023-03-14T13:17:41;100310.59;;;11.44;43.76
63088;BME280;49173;43.164;27.786;2023-03-14T13:20:12;100317.94;;;11.40;44.36
63088;BME280;49173;43.164;27.786;2023-03-14T13:22:45;100312.66;;;11.39;44.80
63088;BME280;49173;43.164;27.786;2023-03-14T13:25:13;100304.47;;;11.26;45.11
63088;BME280;49173;43.164;27.786;2023-03-14T13:27:40;100314.53;;;11.22;46.27
63088;BME280;49173;43.164;27.786;2023-03-14T13:30:17;100306.28;;;11.25;46.81
63088;BME280;49173;43.164;27.786;2023-03-14T13:32:46;100295.19;;;11.32;45.49
63088;BME280;49173;43.164;27.786;2023-03-14T13:35:15;100293.25;;;11.34;45.46
63088;BME280;49173;43.164;27.786;2023-03-14T13:37:41;100292.75;;;11.27;45.85
63088;BME280;49173;43.164;27.786;2023-03-14T13:40:17;100287.63;;;11.08;45.12
63088;BME280;49173;43.164;27.786;2023-03-14T13:42:43;100282.91;;;11.12;46.36
63088;BME280;49173;43.164;27.786;2023-03-14T13:45:11;100278.34;;;11.14;46.39
63088;BME280;49173;43.164;27.786;2023-03-14T13:47:38;100279.47;;;11.10;47.22
63088;BME280;49173;43.164;27.786;2023-03-14T13:50:04;100272.28;;;11.10;48.08
63088;BME280;49173;43.164;27.786;2023-03-14T13:52:32;100266.38;;;11.04;45.05
63088;BME280;49173;43.164;27.786;2023-03-14T13:55:03;100257.66;;;11.00;45.71
63088;BME280;49173;43.164;27.786;2023-03-14T13:57:42;100262.53;;;10.93;45.72